Time;durP1;ratioP1;P1;durP2;ratioP2;P2;SDS_P1;SDS_P2;PMS_P1;PMS_P2;Temp;Humidity;BMP_temperature;BMP_pressure;BME280_temperature;BME280_humidity;BME280_pressure;Samples;Min_cycle;Max_cycle;Signal;HPM_P1;HPM_P2
2023/07/23 00:00:18;;;;;;;9.48;4.75;;;;;;;15.57;100.00;96568.56;5017116;28;20069;-69
2023/07/23 00:02:47;;;;;;;8.63;4.40;;;;;;;15.41;100.00;96569.03;5021791;28;20167;-69
2023/07/23 00:05:33;;;;;;;8.38;5.05;;;;;;;14.96;100.00;96564.06;5002435;28;20050;-69
2023/07/23 00:08:18;;;;;;;8.43;4.85;;;;;;;14.70;100.00;96566.09;4996171;28;20104;-68
2023/07/23 00:11:04;;;;;;;9.40;4.15;;;;;;;14.68;100.00;96565.72;4997364;28;20077;-67
2023/07/23 00:13:49;;;;;;;7.03;4.90;;;;;;;14.58;100.00;96572.03;4996732;28;20053;-67
2023/07/23 00:16:34;;;;;;;7.22;4.43;;;;;;;14.61;100.00;96565.75;5000024;28;20049;-67
2023/07/23 00:19:19;;;;;;;6.28;4.15;;;;;;;14.70;100.00;96566.09;4996998;28;20079;-67
2023/07/23 00:22:22;;;;;;;8.93;4.68;;;;;;;14.89;100.00;96561.34;4996149;28;20525;-68
2023/07/23 00:25:09;;;;;;;40.15;25.40;;;;;;;14.98;100.00;96566.44;4997322;28;20045;-68
2023/07/23 00:27:54;;;;;;;8.70;4.90;;;;;;;14.89;100.00;96562.13;5001037;28;20487;-68
2023/07/23 00:30:39;;;;;;;10.68;5.38;;;;;;;14.65;100.00;96565.72;5011952;28;20041;-68
2023/07/23 00:33:25;;;;;;;8.95;4.65;;;;;;;14.61;100.00;96557.47;4996622;28;20049;-68
2023/07/23 00:36:04;;;;;;;9.83;4.97;;;;;;;14.74;100.00;96551.53;4996355;28;20042;-68
2023/07/23 00:38:49;;;;;;;6.85;4.57;;;;;;;14.79;100.00;96560.19;5001992;28;20356;-73
2023/07/23 00:41:34;;;;;;;8.52;5.10;;;;;;;14.66;100.00;96539.75;4996457;28;20510;-69
2023/07/23 00:44:20;;;;;;;6.78;4.07;;;;;;;14.69;100.00;96549.97;4997315;28;20042;-68
2023/07/23 00:47:04;;;;;;;6.68;4.43;;;;;;;14.78;100.00;96547.56;4999612;28;20049;-69
2023/07/23 00:49:50;;;;;;;8.07;4.40;;;;;;;14.72;100.00;96546.41;4998745;28;20042;-68
2023/07/23 00:52:36;;;;;;;9.00;4.50;;;;;;;14.54;100.00;96544.44;4998604;28;20755;-68
2023/07/23 00:55:22;;;;;;;9.45;5.45;;;;;;;14.42;100.00;96530.31;4992747;28;20041;-68
2023/07/23 00:58:08;;;;;;;13.93;8.25;;;;;;;14.27;100.00;96535.81;4990391;28;20128;-67
2023/07/23 01:00:53;;;;;;;7.60;5.38;;;;;;;14.27;100.00;96529.53;4995908;28;20038;-69
2023/07/23 01:03:38;;;;;;;13.90;7.38;;;;;;;14.45;100.00;96530.28;5001393;28;20048;-69
2023/07/23 01:06:23;;;;;;;10.20;5.53;;;;;;;14.66;100.00;96528.72;4996808;28;22604;-68
2023/07/23 01:09:08;;;;;;;10.88;5.65;;;;;;;14.72;100.00;96530.66;4996189;28;20120;-68
2023/07/23 01:11:53;;;;;;;8.43;4.68;;;;;;;14.83;100.00;96530.63;4994210;28;20133;-68
2023/07/23 01:14:36;;;;;;;8.52;4.85;;;;;;;14.72;100.00;96532.63;5000484;28;20048;-69
2023/07/23 01:17:21;;;;;;;10.40;6.13;;;;;;;14.51;100.00;96531.47;4994475;28;20099;-69
2023/07/23 01:20:06;;;;;;;8.43;5.57;;;;;;;14.45;100.00;96527.53;4996494;28;20546;-69
2023/07/23 01:22:49;;;;;;;6.82;4.13;;;;;;;14.50;100.00;96529.91;5000720;28;20518;-69
2023/07/23 01:25:34;;;;;;;7.90;4.45;;;;;;;14.53;100.00;96525.56;5000185;28;20099;-69
2023/07/23 01:28:17;;;;;;;6.53;4.13;;;;;;;14.55;100.00;96528.72;4996596;28;20489;-69
2023/07/23 01:31:02;;;;;;;9.57;4.40;;;;;;;14.58;100.00;96530.69;5000713;28;20088;-68
2023/07/23 01:33:47;;;;;;;12.60;6.78;;;;;;;14.67;100.00;96528.31;4999991;28;20895;-68
2023/07/23 01:36:52;;;;;;;7.57;4.05;;;;;;;14.67;100.00;96530.28;4994475;28;20034;-68
2023/07/23 01:39:36;;;;;;;6.38;4.22;;;;;;;14.71;100.00;96533.81;5000296;28;20141;-67
2023/07/23 01:42:21;;;;;;;7.18;4.18;;;;;;;14.76;100.00;96529.88;4998237;28;20041;-67
2023/07/23 01:45:06;;;;;;;8.18;4.00;;;;;;;14.81;100.00;96526.72;4998278;28;20057;-68
2023/07/23 01:47:52;;;;;;;7.22;4.05;;;;;;;14.82;100.00;96525.50;4994938;28;20107;-68
2023/07/23 01:50:37;;;;;;;8.57;4.15;;;;;;;14.71;100.00;96528.28;5000373;28;20375;-68
2023/07/23 01:53:22;;;;;;;5.32;3.72;;;;;;;14.72;100.00;96529.88;4992850;28;20339;-68
2023/07/23 01:56:08;;;;;;;8.35;4.32;;;;;;;14.60;100.00;96519.28;4991579;28;20038;-67
2023/07/23 01:58:53;;;;;;;7.20;3.85;;;;;;;14.57;100.00;96520.03;5003681;28;20042;-68
2023/07/23 02:01:38;;;;;;;7.38;4.10;;;;;;;14.58;100.00;96527.16;5005150;28;20038;-69
2023/07/23 02:04:23;;;;;;;9.20;4.10;;;;;;;14.69;100.00;96525.16;4999505;28;20153;-69
2023/07/23 02:07:26;;;;;;;7.00;3.92;;;;;;;14.73;100.00;96528.72;4999259;28;20054;-69
2023/07/23 02:10:11;;;;;;;7.35;3.95;;;;;;;14.78;100.00;96524.75;5000412;28;20398;-67
2023/07/23 02:12:55;;;;;;;7.57;4.10;;;;;;;14.74;100.00;96518.47;4998445;28;20064;-70
2023/07/23 02:15:50;;;;;;;7.20;3.85;;;;;;;14.72;100.00;96524.38;5002890;28;20045;-70
2023/07/23 02:18:35;;;;;;;6.10;3.97;;;;;;;14.56;100.00;96526.75;5004076;28;20046;-69
2023/07/23 02:21:20;;;;;;;9.38;4.35;;;;;;;14.43;100.00;96523.63;5000822;28;20505;-70
2023/07/23 02:24:06;;;;;;;5.43;3.88;;;;;;;14.38;100.00;96516.53;4998368;28;20061;-70
2023/07/23 02:26:50;;;;;;;7.75;4.05;;;;;;;14.43;100.00;96520.88;4994958;28;20049;-70
2023/07/23 02:29:34;;;;;;;8.32;4.07;;;;;;;14.46;100.00;96525.59;5004172;28;20049;-70
2023/07/23 02:31:59;;;;;;;8.10;4.15;;;;;;;14.39;100.00;96520.88;5004033;28;20471;-70
2023/07/23 02:34:25;;;;;;;8.40;4.13;;;;;;;14.28;100.00;96525.63;4997499;28;20053;-69
2023/07/23 02:36:50;;;;;;;6.95;4.13;;;;;;;14.15;100.00;96522.44;5004280;28;20402;-70
2023/07/23 02:39:16;;;;;;;8.15;5.07;;;;;;;14.07;100.00;96518.91;5000249;28;20559;-70
2023/07/23 02:41:41;;;;;;;6.95;4.40;;;;;;;14.11;100.00;96518.91;4985659;28;20500;-69
2023/07/23 02:44:07;;;;;;;8.35;5.22;;;;;;;14.01;100.00;96515.00;4980481;28;20040;-70
2023/07/23 02:46:32;;;;;;;7.72;4.53;;;;;;;13.90;100.00;96516.94;4985368;28;20035;-70
2023/07/23 02:48:57;;;;;;;10.25;5.20;;;;;;;13.92;100.00;96517.38;4984640;28;20062;-70
2023/07/23 02:51:23;;;;;;;9.40;4.38;;;;;;;13.85;100.00;96515.38;4979258;28;20187;-69
2023/07/23 02:53:49;;;;;;;8.45;4.55;;;;;;;13.85;100.00;96511.84;4983834;28;20046;-69
2023/07/23 02:56:15;;;;;;;7.22;4.63;;;;;;;13.91;100.00;96510.28;4980868;28;20042;-71
2023/07/23 02:58:41;;;;;;;10.82;4.00;;;;;;;13.91;100.00;96519.31;4984778;28;20031;-70
2023/07/23 03:01:09;;;;;;;7.63;4.13;;;;;;;13.90;100.00;96509.50;4980639;28;20137;-70
2023/07/23 03:03:35;;;;;;;6.90;4.30;;;;;;;13.92;100.00;96514.63;4985020;28;20046;-69
2023/07/23 03:06:01;;;;;;;6.60;4.47;;;;;;;13.92;100.00;96511.84;4985738;28;20043;-70
2023/07/23 03:08:27;;;;;;;7.20;3.88;;;;;;;13.94;100.00;96512.25;4979434;28;20136;-70
2023/07/23 03:10:53;;;;;;;4.93;3.55;;;;;;;13.90;100.00;96508.69;4985415;28;20507;-71
2023/07/23 03:13:18;;;;;;;11.50;4.90;;;;;;;13.85;100.00;96512.63;4980951;28;20069;-70
2023/07/23 03:15:44;;;;;;;8.35;4.72;;;;;;;13.75;100.00;96507.91;4985440;28;20043;-70
2023/07/23 03:18:09;;;;;;;7.53;4.60;;;;;;;13.73;100.00;96504.75;4977156;28;20038;-71
2023/07/23 03:20:34;;;;;;;6.82;4.22;;;;;;;13.79;100.00;96502.41;4984638;28;20054;-69
2023/07/23 03:23:00;;;;;;;8.27;4.78;;;;;;;13.74;100.00;96498.88;4984204;28;20039;-70
2023/07/23 03:25:25;;;;;;;10.18;4.57;;;;;;;13.72;100.00;96500.41;4994092;28;20054;-70
2023/07/23 03:27:51;;;;;;;8.38;4.72;;;;;;;13.69;100.00;96507.50;4984256;28;20042;-71
2023/07/23 03:30:16;;;;;;;6.18;3.88;;;;;;;13.73;100.00;96496.50;4980189;28;20483;-68
2023/07/23 03:32:42;;;;;;;5.68;4.28;;;;;;;13.75;100.00;96505.94;4984325;28;20048;-71
2023/07/23 03:35:27;;;;;;;9.45;4.03;;;;;;;13.78;100.00;96498.88;4988221;28;20052;-69
2023/07/23 03:38:13;;;;;;;7.57;4.50;;;;;;;13.75;100.00;96500.41;4985457;28;20045;-67
2023/07/23 03:40:58;;;;;;;6.45;4.30;;;;;;;13.75;100.00;96497.66;4990950;28;20046;-69
2023/07/23 03:43:44;;;;;;;6.43;3.70;;;;;;;13.88;100.00;96494.53;4990588;28;20046;-68
2023/07/23 03:46:30;;;;;;;6.95;3.97;;;;;;;13.92;100.00;96498.88;5000314;28;20549;-69
2023/07/23 03:49:15;;;;;;;6.97;3.90;;;;;;;13.99;100.00;96495.34;4987742;28;20145;-68
2023/07/23 03:52:01;;;;;;;6.63;3.70;;;;;;;14.05;100.00;96495.72;4994632;28;20038;-67
2023/07/23 03:54:47;;;;;;;8.27;3.42;;;;;;;14.07;100.00;96501.63;4993129;28;20041;-69
2023/07/23 03:57:32;;;;;;;8.50;3.80;;;;;;;14.08;100.00;96500.44;4992581;28;20042;-69
2023/07/23 04:00:18;;;;;;;6.50;3.83;;;;;;;14.04;100.00;96494.91;4987882;28;20153;-68
2023/07/23 04:03:04;;;;;;;5.50;3.60;;;;;;;14.05;100.00;96495.72;4991085;28;20050;-67
2023/07/23 04:05:50;;;;;;;6.13;3.75;;;;;;;14.09;100.00;96494.53;4989188;28;20581;-69
2023/07/23 04:08:35;;;;;;;7.40;4.13;;;;;;;14.14;100.00;96499.63;4992794;28;20693;-68
2023/07/23 04:11:21;;;;;;;5.72;3.55;;;;;;;14.09;100.00;96499.25;4987645;28;20118;-68
2023/07/23 04:14:07;;;;;;;6.57;3.92;;;;;;;14.06;100.00;96495.34;4986761;28;20046;-69
2023/07/23 04:16:55;;;;;;;5.60;4.15;;;;;;;14.12;100.00;96499.25;4993928;28;20050;-67
2023/07/23 04:19:41;;;;;;;7.78;3.95;;;;;;;14.19;100.00;96492.97;4988249;28;20686;-67
2023/07/23 04:22:27;;;;;;;6.00;3.90;;;;;;;14.26;100.00;96503.16;4987736;28;20096;-67
2023/07/23 04:25:12;;;;;;;6.93;4.10;;;;;;;14.36;100.00;96505.13;4987963;28;20674;-69
2023/07/23 04:27:58;;;;;;;7.00;4.50;;;;;;;14.36;100.00;96502.38;4993513;28;20073;-68
2023/07/23 04:30:44;;;;;;;10.60;4.25;;;;;;;14.46;100.00;96503.56;4989130;28;20510;-68
2023/07/23 04:33:29;;;;;;;8.23;3.90;;;;;;;14.59;100.00;96512.97;5003736;28;20050;-68
2023/07/23 04:36:15;;;;;;;5.63;3.85;;;;;;;14.70;100.00;96505.47;4984464;28;20057;-69
2023/07/23 04:39:03;;;;;;;7.30;3.80;;;;;;;14.78;100.00;96510.97;4993226;28;20034;-69
2023/07/23 04:41:50;;;;;;;5.50;3.45;;;;;;;14.85;100.00;96508.19;4993487;28;20058;-69
2023/07/23 04:44:35;;;;;;;6.68;3.88;;;;;;;14.96;100.00;96508.13;4991871;28;20045;-68
2023/07/23 04:47:21;;;;;;;10.27;4.13;;;;;;;15.08;100.00;96505.72;4989089;28;20057;-68
2023/07/23 04:50:07;;;;;;;5.65;3.28;;;;;;;15.12;100.00;96513.19;4985802;28;20572;-68
2023/07/23 04:52:52;;;;;;;8.60;3.90;;;;;;;15.24;100.00;96518.25;4986769;28;20046;-68
2023/07/23 04:55:38;;;;;;;6.10;3.25;;;;;;;15.33;100.00;96506.78;4990995;28;20038;-67
2023/07/23 04:58:25;;;;;;;7.13;3.75;;;;;;;15.50;100.00;96516.94;4989588;28;20508;-68
2023/07/23 05:01:12;;;;;;;7.93;3.50;;;;;;;15.70;100.00;96517.22;4987341;28;20186;-67
2023/07/23 05:03:57;;;;;;;6.95;4.10;;;;;;;15.89;100.00;96506.84;4992522;28;20501;-68
2023/07/23 05:06:43;;;;;;;9.38;3.85;;;;;;;16.24;100.00;96514.03;4988253;28;20143;-68
2023/07/23 05:09:28;;;;;;;6.95;3.70;;;;;;;17.51;100.00;96520.53;4989949;28;20050;-69
2023/07/23 05:12:14;;;;;;;8.98;3.30;;;;;;;19.49;91.24;96511.56;4986740;28;20054;-68
2023/07/23 05:15:14;;;;;;;9.20;3.20;;;;;;;21.33;76.95;96519.63;4990639;28;20694;-67
2023/07/23 05:17:59;;;;;;;4.93;2.95;;;;;;;22.16;70.22;96533.88;4992919;28;20108;-69
2023/07/23 05:20:45;;;;;;;6.72;2.45;;;;;;;23.59;62.91;96527.38;4988676;28;20050;-66
2023/07/23 05:23:31;;;;;;;6.50;3.03;;;;;;;24.78;56.80;96529.78;4992216;28;20070;-67
2023/07/23 05:26:17;;;;;;;8.05;2.80;;;;;;;25.77;52.29;96536.25;4982513;28;20046;-66
2023/07/23 05:29:02;;;;;;;5.97;2.92;;;;;;;26.42;49.48;96545.19;4991533;28;20088;-66
2023/07/23 05:31:49;;;;;;;5.55;2.60;;;;;;;26.80;48.74;96540.13;4986576;28;20088;-69
2023/07/23 05:34:35;;;;;;;6.07;2.85;;;;;;;27.34;47.15;96545.81;4996468;28;20162;-68
2023/07/23 05:37:20;;;;;;;5.53;2.50;;;;;;;27.79;45.63;96555.81;4990257;28;20045;-68
2023/07/23 05:40:07;;;;;;;5.35;2.55;;;;;;;28.46;44.12;96566.59;4991214;28;20049;-69
2023/07/23 05:42:55;;;;;;;4.13;2.45;;;;;;;28.79;43.28;96566.31;4995800;28;20054;-68
2023/07/23 05:45:41;;;;;;;5.57;2.35;;;;;;;28.40;43.70;96565.75;4994419;28;20509;-68
2023/07/23 05:48:26;;;;;;;5.43;2.60;;;;;;;28.40;43.45;96569.34;4989336;28;20046;-67
2023/07/23 05:51:12;;;;;;;6.38;3.00;;;;;;;28.35;43.35;96569.25;4992259;28;20041;-67
2023/07/23 05:53:58;;;;;;;4.65;2.58;;;;;;;29.52;41.82;96563.56;4994574;28;20527;-67
2023/07/23 05:56:43;;;;;;;4.78;2.60;;;;;;;30.49;40.19;96573.66;4993103;28;20046;-66
2023/07/23 05:59:29;;;;;;;3.90;2.40;;;;;;;30.77;39.24;96568.16;4992366;28;20061;-66
2023/07/23 06:02:15;;;;;;;5.57;2.42;;;;;;;30.68;39.57;96568.38;4991397;28;20038;-66
2023/07/23 06:05:00;;;;;;;4.28;2.30;;;;;;;31.24;38.67;96576.34;4995655;28;20530;-68
2023/07/23 06:07:46;;;;;;;6.53;2.78;;;;;;;31.69;37.83;96584.22;4995212;28;20045;-66
2023/07/23 06:10:32;;;;;;;5.35;2.92;;;;;;;32.17;36.57;96583.25;4989968;28;20196;-66
2023/07/23 06:13:18;;;;;;;4.97;2.72;;;;;;;31.88;37.08;96579.63;4990284;28;20144;-68
2023/07/23 06:16:03;;;;;;;4.80;2.90;;;;;;;32.13;36.04;96577.84;4987701;28;20558;-68
2023/07/23 06:18:49;;;;;;;5.78;2.85;;;;;;;32.08;36.37;96583.50;4995284;28;20446;-69
2023/07/23 06:21:34;;;;;;;5.40;2.88;;;;;;;31.93;36.27;96586.56;4989693;28;20167;-70
2023/07/23 06:24:20;;;;;;;6.38;3.05;;;;;;;27.61;42.97;96584.13;4991642;28;20053;-67
2023/07/23 06:27:06;;;;;;;5.38;3.10;;;;;;;26.17;46.98;96574.47;4990429;28;20083;-68
2023/07/23 06:29:52;;;;;;;6.25;3.13;;;;;;;24.85;53.78;96555.94;4995236;28;20123;-66
2023/07/23 06:32:38;;;;;;;9.88;3.40;;;;;;;26.23;51.35;96557.75;4993924;28;20761;-68
2023/07/23 06:35:23;;;;;;;7.50;3.22;;;;;;;29.34;43.71;96575.19;4986812;28;20073;-68
2023/07/23 06:38:09;;;;;;;4.85;3.00;;;;;;;30.58;40.31;96572.69;4989885;28;20046;-67
2023/07/23 06:40:56;;;;;;;8.90;3.00;;;;;;;30.90;39.46;96576.22;4997948;28;20065;-68
2023/07/23 06:43:41;;;;;;;5.40;2.70;;;;;;;29.61;42.14;96571.09;4993037;28;20594;-68
2023/07/23 06:46:27;;;;;;;5.85;3.10;;;;;;;30.47;40.67;96574.16;4991030;28;20049;-67
2023/07/23 06:49:14;;;;;;;7.95;2.85;;;;;;;31.88;37.06;96584.50;4986550;28;20038;-66
2023/07/23 06:51:59;;;;;;;6.60;3.30;;;;;;;32.31;36.51;96587.13;4994437;28;20042;-68
2023/07/23 06:54:45;;;;;;;4.50;3.00;;;;;;;33.35;34.07;96590.75;4992660;28;20431;-66
2023/07/23 06:57:31;;;;;;;4.63;2.80;;;;;;;34.12;34.00;96595.69;4993461;28;20057;-69
2023/07/23 07:00:16;;;;;;;4.80;3.40;;;;;;;34.02;33.18;96598.09;4988160;28;20057;-67
2023/07/23 07:03:02;;;;;;;4.90;2.60;;;;;;;32.93;34.96;96604.78;4992698;28;20387;-65
2023/07/23 07:05:48;;;;;;;6.10;2.88;;;;;;;34.05;33.08;96596.25;4986113;28;20046;-69
2023/07/23 07:08:33;;;;;;;4.93;2.45;;;;;;;34.09;33.00;96593.91;4993929;28;20813;-67
2023/07/23 07:11:19;;;;;;;5.10;2.38;;;;;;;34.51;32.56;96596.69;4988166;28;20454;-68
2023/07/23 07:14:05;;;;;;;4.68;2.50;;;;;;;34.98;30.99;96594.38;4987796;28;20142;-67
2023/07/23 07:16:50;;;;;;;6.13;2.42;;;;;;;34.00;32.78;96600.69;4992511;28;20069;-69
2023/07/23 07:19:36;;;;;;;5.20;2.40;;;;;;;35.00;30.37;96606.00;4992757;28;20050;-65
2023/07/23 07:22:22;;;;;;;4.88;2.88;;;;;;;31.89;35.13;96598.16;4988358;28;20412;-66
2023/07/23 07:25:07;;;;;;;6.05;2.60;;;;;;;33.11;33.63;96605.50;4986339;28;20054;-68
2023/07/23 07:27:53;;;;;;;3.95;2.15;;;;;;;31.90;34.72;96593.25;4991787;28;20113;-69
2023/07/23 07:30:40;;;;;;;3.15;2.30;;;;;;;30.63;36.17;96594.53;4989760;28;20073;-67
2023/07/23 07:33:27;;;;;;;4.25;2.38;;;;;;;30.76;36.15;96588.47;4988141;28;20076;-68
2023/07/23 07:36:13;;;;;;;4.38;2.75;;;;;;;31.66;33.96;96596.56;4989982;28;20042;-67
2023/07/23 07:38:58;;;;;;;5.30;2.45;;;;;;;32.50;33.09;96596.63;4991874;28;20046;-68
2023/07/23 07:41:44;;;;;;;3.83;2.38;;;;;;;32.64;32.70;96605.38;4993829;28;20101;-68
2023/07/23 07:44:29;;;;;;;4.82;2.30;;;;;;;31.88;32.52;96602.25;4991755;28;20437;-69
2023/07/23 07:47:15;;;;;;;4.70;2.20;;;;;;;30.05;33.97;96591.78;4986465;28;20074;-67
2023/07/23 07:50:03;;;;;;;14.32;9.10;;;;;;;30.56;33.57;96581.69;4988382;28;20038;-66
2023/07/23 07:52:48;;;;;;;4.25;2.33;;;;;;;32.34;30.65;96600.22;4990109;28;20049;-68
2023/07/23 07:55:41;;;;;;;8.48;2.40;;;;;;;32.51;31.01;96603.06;4989048;28;20073;-66
2023/07/23 07:58:27;;;;;;;3.95;2.05;;;;;;;31.61;31.01;96592.44;4990337;28;20722;-67
2023/07/23 08:01:14;;;;;;;5.32;2.00;;;;;;;30.75;32.37;96587.69;4986999;28;20057;-68
2023/07/23 08:04:01;;;;;;;4.95;2.30;;;;;;;31.06;31.10;96586.84;4992116;28;20053;-68
2023/07/23 08:06:47;;;;;;;4.97;2.28;;;;;;;31.03;30.78;96578.63;4989938;28;20117;-69
2023/07/23 08:09:34;;;;;;;5.82;2.55;;;;;;;30.58;31.53;96578.34;4991992;28;20123;-68
2023/07/23 08:12:21;;;;;;;4.47;2.20;;;;;;;30.43;31.36;96581.31;4990422;28;20766;-67
2023/07/23 08:15:08;;;;;;;4.10;2.58;;;;;;;30.98;31.78;96585.78;4987172;28;20072;-67
2023/07/23 08:17:54;;;;;;;4.18;1.95;;;;;;;30.85;30.94;96588.25;4992935;28;20037;-68
2023/07/23 08:20:40;;;;;;;3.95;2.08;;;;;;;29.66;33.37;96589.38;4993796;28;20042;-67
2023/07/23 08:23:26;;;;;;;5.90;2.88;;;;;;;29.14;32.79;96588.03;4988187;28;20120;-67
2023/07/23 08:26:14;;;;;;;4.13;2.30;;;;;;;29.40;32.48;96580.88;4985183;28;20045;-67
2023/07/23 08:29:05;;;;;;;4.28;2.28;;;;;;;30.17;31.82;96582.16;4989784;28;20065;-69
2023/07/23 08:31:51;;;;;;;4.30;2.13;;;;;;;30.97;31.02;96578.59;4993167;28;20681;-68
2023/07/23 08:34:37;;;;;;;4.45;2.35;;;;;;;30.13;31.01;96578.78;4990698;28;20138;-67
2023/07/23 08:37:23;;;;;;;3.63;2.13;;;;;;;30.66;31.05;96576.59;4988629;28;20189;-67
2023/07/23 08:40:09;;;;;;;4.07;2.10;;;;;;;30.27;31.79;96579.91;4986528;28;20460;-68
2023/07/23 08:43:05;;;;;;;5.50;2.45;;;;;;;29.82;33.24;96579.53;4993137;28;20255;-68
2023/07/23 08:46:25;;;;;;;3.80;2.20;;;;;;;30.58;31.17;96575.53;4990590;28;20525;-68
2023/07/23 08:49:12;;;;;;;4.97;2.10;;;;;;;30.56;31.38;96580.88;4987424;28;20325;-68
2023/07/23 08:51:58;;;;;;;4.72;2.33;;;;;;;31.10;31.35;96583.00;4992124;28;20042;-69
2023/07/23 08:54:44;;;;;;;3.95;2.10;;;;;;;30.58;32.07;96584.78;4993396;28;20128;-67
2023/07/23 08:57:32;;;;;;;3.42;2.08;;;;;;;29.84;32.37;96568.53;4990363;28;20100;-66
2023/07/23 09:00:18;;;;;;;4.40;1.90;;;;;;;30.44;33.05;96571.59;4985687;28;20061;-68
2023/07/23 09:03:05;;;;;;;3.25;2.05;;;;;;;30.07;32.86;96577.94;4988009;28;20534;-68
2023/07/23 09:05:50;;;;;;;4.80;2.08;;;;;;;29.63;32.80;96576.25;4993207;28;20049;-69
2023/07/23 09:08:36;;;;;;;4.80;2.15;;;;;;;30.36;32.74;96578.97;4996835;28;20046;-67
2023/07/23 09:11:22;;;;;;;5.63;2.40;;;;;;;30.14;32.99;96571.84;4990866;28;20304;-68
2023/07/23 09:14:10;;;;;;;5.45;2.00;;;;;;;30.27;32.57;96575.03;4984506;28;20037;-68
2023/07/23 09:16:55;;;;;;;3.15;1.85;;;;;;;31.12;31.64;96569.13;4995255;28;20080;-68
2023/07/23 09:19:41;;;;;;;5.10;2.03;;;;;;;30.30;32.89;96564.78;4992532;28;20069;-68
2023/07/23 09:22:31;;;;;;;3.42;1.83;;;;;;;29.82;33.82;96565.41;4991872;28;20065;-67
2023/07/23 09:25:18;;;;;;;6.10;2.28;;;;;;;29.89;33.98;96574.22;4990934;28;20042;-69
2023/07/23 09:28:04;;;;;;;6.32;1.80;;;;;;;29.34;34.09;96575.97;4997958;28;20041;-67
2023/07/23 09:30:57;;;;;;;3.92;1.83;;;;;;;29.51;34.60;96578.19;4996833;28;20686;-69
2023/07/23 09:33:43;;;;;;;3.13;1.70;;;;;;;29.43;34.37;96571.44;4996642;28;20136;-68
2023/07/23 09:36:30;;;;;;;3.17;1.90;;;;;;;28.72;36.09;96572.38;4991542;28;20109;-69
2023/07/23 09:39:15;;;;;;;3.03;1.75;;;;;;;29.57;34.99;96567.75;4995168;28;20655;-69
2023/07/23 09:42:03;;;;;;;3.10;1.73;;;;;;;29.61;33.14;96568.28;4994954;28;20084;-68
2023/07/23 09:44:49;;;;;;;4.45;1.77;;;;;;;30.53;32.60;96574.19;4997101;28;20133;-69
2023/07/23 09:47:35;;;;;;;4.03;1.85;;;;;;;31.47;30.90;96568.72;4993277;28;20052;-68
2023/07/23 09:50:21;;;;;;;6.18;1.77;;;;;;;31.75;30.73;96580.13;4992864;28;20050;-68
2023/07/23 09:53:10;;;;;;;3.47;1.90;;;;;;;31.29;32.44;96575.59;4990553;28;20112;-68
2023/07/23 09:55:56;;;;;;;3.10;1.73;;;;;;;30.82;31.52;96573.06;4996872;28;20201;-69
2023/07/23 09:58:49;;;;;;;2.90;1.65;;;;;;;30.47;33.14;96574.16;4987568;28;20463;-68
2023/07/23 10:01:38;;;;;;;6.10;2.22;;;;;;;30.80;33.18;96563.56;4996439;28;20157;-67
2023/07/23 10:04:26;;;;;;;3.70;1.75;;;;;;;31.06;32.22;96572.72;4987082;28;20536;-68
2023/07/23 10:07:13;;;;;;;3.07;1.80;;;;;;;30.22;33.06;96577.81;4990935;28;20734;-68
2023/07/23 10:10:00;;;;;;;4.32;2.13;;;;;;;29.47;34.63;96572.00;4986971;28;20057;-70
2023/07/23 10:12:46;;;;;;;4.47;1.70;;;;;;;29.88;33.67;96569.84;4996845;28;20415;-69
2023/07/23 10:15:33;;;;;;;2.97;1.70;;;;;;;29.22;34.79;96571.47;4989288;28;20041;-69
2023/07/23 10:18:26;;;;;;;3.78;2.10;;;;;;;29.58;34.60;96566.44;4982906;28;20057;-68
2023/07/23 10:21:12;;;;;;;2.65;1.65;;;;;;;29.67;34.30;96571.91;4986787;28;20054;-70
2023/07/23 10:23:59;;;;;;;3.97;1.85;;;;;;;29.16;35.63;96576.28;4996415;28;20530;-69
2023/07/23 10:26:48;;;;;;;3.45;1.77;;;;;;;29.21;35.00;96563.50;4999119;28;20057;-69
2023/07/23 10:29:34;;;;;;;4.15;2.00;;;;;;;29.00;35.24;96574.75;4999526;28;20057;-68
2023/07/23 10:32:26;;;;;;;3.72;2.15;;;;;;;29.39;34.42;96553.94;4990669;28;20042;-69
2023/07/23 10:35:12;;;;;;;21.98;12.65;;;;;;;28.93;35.20;96566.72;4993374;28;20088;-69
2023/07/23 10:38:19;;;;;;;10.02;4.55;;;;;;;29.49;34.89;96555.34;4995510;28;20046;-69
2023/07/23 10:41:05;;;;;;;4.95;2.33;;;;;;;30.37;33.31;96555.09;4986390;28;20064;-68
2023/07/23 10:43:52;;;;;;;3.85;2.30;;;;;;;29.57;34.04;96553.63;4995758;28;20100;-69
2023/07/23 10:46:38;;;;;;;4.72;2.03;;;;;;;29.83;34.73;96539.50;4990337;28;20046;-69
2023/07/23 10:49:27;;;;;;;3.55;2.50;;;;;;;29.55;34.69;96545.66;4986516;28;20566;-68
2023/07/23 10:52:16;;;;;;;4.28;2.20;;;;;;;29.63;34.69;96540.34;4989486;28;20034;-68
2023/07/23 10:55:02;;;;;;;5.25;2.30;;;;;;;29.46;34.99;96543.00;4991040;28;20042;-66
2023/07/23 10:57:48;;;;;;;4.50;2.10;;;;;;;29.68;34.72;96544.50;4994267;28;20045;-68
2023/07/23 11:00:34;;;;;;;3.90;2.05;;;;;;;29.69;34.42;96544.00;4993162;28;20514;-66
2023/07/23 11:03:00;;;;;;;3.63;2.15;;;;;;;29.27;35.01;96538.97;5003854;28;20041;-67
2023/07/23 11:05:26;;;;;;;4.50;2.53;;;;;;;28.92;34.58;96540.59;4995949;28;20050;-68
2023/07/23 11:08:16;;;;;;;4.80;2.45;;;;;;;28.97;35.80;96534.25;5001836;28;20046;-68
2023/07/23 11:11:11;;;;;;;4.07;2.38;;;;;;;29.19;34.76;96530.16;5001632;28;20069;-67
2023/07/23 11:13:37;;;;;;;5.13;2.58;;;;;;;29.14;34.70;96534.47;4989571;28;20364;-68
2023/07/23 11:16:04;;;;;;;6.13;2.50;;;;;;;29.53;34.42;96507.91;4999202;28;20092;-65
2023/07/23 11:18:32;;;;;;;7.53;5.00;;;;;;;29.36;34.43;96525.47;5007923;28;20137;-68
2023/07/23 11:20:59;;;;;;;4.57;2.53;;;;;;;29.28;34.57;96515.91;5003161;28;20046;-68
2023/07/23 11:23:25;;;;;;;4.65;2.67;;;;;;;29.31;34.48;96522.59;4995652;28;20258;-68
2023/07/23 11:25:52;;;;;;;3.65;2.10;;;;;;;29.18;34.36;96522.97;5002801;28;20398;-68
2023/07/23 11:28:19;;;;;;;3.80;2.30;;;;;;;29.31;34.88;96517.72;4998835;28;20129;-68
2023/07/23 11:30:46;;;;;;;5.07;2.67;;;;;;;28.90;35.60;96514.94;5001804;28;20034;-68
2023/07/23 11:33:12;;;;;;;5.28;2.53;;;;;;;28.41;35.76;96511.75;4994993;28;20034;-67
2023/07/23 11:35:38;;;;;;;6.60;2.67;;;;;;;28.28;35.98;96499.25;5001837;28;20046;-68
2023/07/23 11:38:06;;;;;;;5.53;2.95;;;;;;;28.46;36.65;96509.50;4999138;28;20034;-65
2023/07/23 11:40:32;;;;;;;4.85;2.60;;;;;;;28.47;36.45;96505.38;5004026;28;20070;-68
2023/07/23 11:43:05;;;;;;;5.20;2.83;;;;;;;28.12;36.11;96492.88;4998442;28;20100;-67
2023/07/23 11:45:30;;;;;;;9.50;3.45;;;;;;;27.74;37.18;96491.00;5001284;28;20113;-68
2023/07/23 11:47:56;;;;;;;6.03;3.15;;;;;;;27.64;37.09;96490.31;5000405;28;20054;-68
2023/07/23 11:50:22;;;;;;;7.05;2.95;;;;;;;27.78;38.48;96489.53;4993640;28;20136;-68
2023/07/23 11:52:49;;;;;;;6.50;3.20;;;;;;;28.18;36.47;96479.69;5002374;28;20053;-68
2023/07/23 11:55:26;;;;;;;7.43;3.00;;;;;;;28.33;36.01;96473.22;4997101;28;20135;-69
2023/07/23 11:57:58;;;;;;;6.32;3.33;;;;;;;29.03;35.06;96474.31;5002047;28;20042;-67
2023/07/23 12:00:28;;;;;;;4.72;3.05;;;;;;;29.07;35.17;96475.66;4993053;28;20056;-70
2023/07/23 12:02:54;;;;;;;5.55;3.40;;;;;;;29.04;34.92;96470.25;5002649;28;20048;-66
2023/07/23 12:05:20;;;;;;;6.10;3.55;;;;;;;28.72;35.14;96464.50;4992142;28;20042;-69
2023/07/23 12:07:46;;;;;;;5.32;3.25;;;;;;;28.51;35.76;96455.28;5001408;28;20128;-68
2023/07/23 12:10:15;;;;;;;7.72;4.10;;;;;;;28.17;37.10;96449.19;4996167;28;20042;-68
2023/07/23 12:12:47;;;;;;;7.10;3.85;;;;;;;28.29;36.45;96456.53;5000636;28;20144;-69
2023/07/23 12:15:16;;;;;;;7.10;3.95;;;;;;;28.30;36.33;96454.47;4996387;28;20049;-69
2023/07/23 12:17:43;;;;;;;8.02;3.95;;;;;;;28.86;35.78;96446.72;5000052;28;20037;-68
2023/07/23 12:20:10;;;;;;;5.53;3.85;;;;;;;29.06;35.71;96447.97;4996193;28;20145;-68
2023/07/23 12:22:55;;;;;;;6.00;4.00;;;;;;;29.24;35.01;96453.28;4998743;28;20037;-69
2023/07/23 12:25:23;;;;;;;6.88;4.15;;;;;;;29.15;34.85;96442.97;4996165;28;20046;-69
2023/07/23 12:27:48;;;;;;;6.68;3.42;;;;;;;29.15;35.36;96445.78;4999750;28;20065;-68
2023/07/23 12:30:14;;;;;;;7.03;3.90;;;;;;;29.26;34.84;96436.66;4996214;28;20065;-68
2023/07/23 12:32:40;;;;;;;8.80;4.10;;;;;;;28.94;35.41;96438.63;5001088;28;20133;-68
2023/07/23 12:35:06;;;;;;;10.35;6.57;;;;;;;29.00;35.29;96441.50;4988111;28;20104;-69
2023/07/23 12:37:34;;;;;;;8.43;3.97;;;;;;;29.28;34.74;96447.44;5014663;28;20049;-68